Map

Track Data

SID SEASON NUMBER BASIN SUBBASIN NAME ISO_TIME NATURE LAT LON WMO_WIND WMO_PRES WMO_AGENCY TRACK_TYPE DIST2LAND LANDFALL IFLAG USA_AGENCY USA_ATCF_ID USA_LAT USA_LON USA_RECORD USA_STATUS USA_WIND USA_PRES USA_SSHS USA_R34_NE USA_R34_SE USA_R34_SW USA_R34_NW USA_R50_NE USA_R50_SE USA_R50_SW USA_R50_NW USA_R64_NE USA_R64_SE USA_R64_SW USA_R64_NW USA_POCI USA_ROCI USA_RMW USA_EYE TOKYO_LAT TOKYO_LON TOKYO_GRADE TOKYO_WIND TOKYO_PRES TOKYO_R50_DIR TOKYO_R50_LONG TOKYO_R50_SHORT TOKYO_R30_DIR TOKYO_R30_LONG TOKYO_R30_SHORT TOKYO_LAND CMA_LAT CMA_LON CMA_CAT CMA_WIND CMA_PRES HKO_LAT HKO_LON HKO_CAT HKO_WIND HKO_PRES NEWDELHI_LAT NEWDELHI_LON NEWDELHI_GRADE NEWDELHI_WIND NEWDELHI_PRES NEWDELHI_CI NEWDELHI_DP NEWDELHI_POCI REUNION_LAT REUNION_LON REUNION_TYPE REUNION_WIND REUNION_PRES REUNION_TNUM REUNION_CI REUNION_RMW REUNION_R34_NE REUNION_R34_SE REUNION_R34_SW REUNION_R34_NW REUNION_R50_NE REUNION_R50_SE REUNION_R50_SW REUNION_R50_NW REUNION_R64_NE REUNION_R64_SE REUNION_R64_SW REUNION_R64_NW BOM_LAT BOM_LON BOM_TYPE BOM_WIND BOM_PRES BOM_TNUM BOM_CI BOM_RMW BOM_R34_NE BOM_R34_SE BOM_R34_SW BOM_R34_NW BOM_R50_NE BOM_R50_SE BOM_R50_SW BOM_R50_NW BOM_R64_NE BOM_R64_SE BOM_R64_SW BOM_R64_NW BOM_ROCI BOM_POCI BOM_EYE BOM_POS_METHOD BOM_PRES_METHOD NADI_LAT NADI_LON NADI_CAT NADI_WIND NADI_PRES WELLINGTON_LAT WELLINGTON_LON WELLINGTON_WIND WELLINGTON_PRES DS824_LAT DS824_LON DS824_STAGE DS824_WIND DS824_PRES TD9636_LAT TD9636_LON TD9636_STAGE TD9636_WIND TD9636_PRES TD9635_LAT TD9635_LON TD9635_WIND TD9635_PRES TD9635_ROCI NEUMANN_LAT NEUMANN_LON NEUMANN_CLASS NEUMANN_WIND NEUMANN_PRES MLC_LAT MLC_LON MLC_CLASS MLC_WIND MLC_PRES USA_GUST BOM_GUST BOM_GUST_PER REUNION_GUST REUNION_GUST_PER USA_SEAHGT USA_SEARAD_NE USA_SEARAD_SE USA_SEARAD_SW USA_SEARAD_NW STORM_SPEED STORM_DIR
1953332N06149 1953 79 WP MM NOT_NAMED 1953-11-27 18:00:00 TS 5.50000 148.600 1003 tokyo main 862 857 _OO___________ -1 5.50000 148.600 2 1003 0 0 0 5.50000 148.600 1 29 1003 6 268
1953332N06149 1953 79 WP MM NOT_NAMED 1953-11-27 21:00:00 TS 5.48753 148.300 main 857 796 _PP___________ -1 5.48753 148.300 2 1003 0 0 5.48753 148.300 1 29 1003 10 239
1953332N06149 1953 79 WP MM NOT_NAMED 1953-11-28 00:00:00 TS 4.98000 147.720 1003 tokyo main 796 784 OOO______OOO__ jtwc_wp WP231953 4.20000 147.300 25 -1 5.50000 148.000 2 1003 0 0 0 5.50000 148.000 1 29 1003 4.20000 147.300 TC 25 4.20000 147.300 1 25 4.20000 147.300 25 1004 120 11 239
1953332N06149 1953 79 WP MM NOT_NAMED 1953-11-28 03:00:00 TS 4.92380 147.350 main 784 784 PPP______PPP__ WP231953 4.29002 147.003 25 -1 5.54998 147.700 2 1003 0 0 5.54998 147.700 1 29 1003 4.29002 147.003 TC 25 4.32041 146.992 1 26 4.29002 147.003 25 1004 180 7 263
1953332N06149 1953 79 WP MM NOT_NAMED 1953-11-28 06:00:00 TS 4.88639 146.978 1003 tokyo main 784 784 OOO______OPO__ jtwc_wp WP231953 4.40000 146.700 25 -1 5.60000 147.400 2 1003 0 0 0 5.60000 147.400 1 29 1003 4.40000 146.700 TC 25 4.44260 146.688 1 27 4.40000 146.700 25 1004 240 7 268
1953332N06149 1953 79 WP MM NOT_NAMED 1953-11-28 09:00:00 TS 4.89933 146.625 main 784 784 PPP______PPP__ WP231953 4.54250 146.393 27 -1 5.60000 147.092 2 1003 0 0 5.60000 147.092 1 29 1003 4.54250 146.393 TC 27 4.56849 146.389 1 28 4.54250 146.393 27 1004 240 7 280
1953332N06149 1953 79 WP MM NOT_NAMED 1953-11-28 12:00:00 TS 5.00000 146.333 1004 tokyo main 796 796 OOO______OOO__ jtwc_wp WP231953 4.70000 146.100 30 -1 5.60000 146.800 2 1004 0 0 0 5.60000 146.800 1 29 1004 4.70000 146.100 TC 30 4.70000 146.100 1 30 4.70000 146.100 30 1004 240 6 291
1953332N06149 1953 79 WP MM NOT_NAMED 1953-11-28 15:00:00 TS 5.10977 146.075 main 808 808 PPP______PPP__ WP231953 4.84998 145.842 30 -1 5.63497 146.550 2 1004 0 0 5.63497 146.550 1 29 1004 4.84998 145.842 TC 30 4.83872 145.823 1 30 4.84998 145.842 30 1004 240 6 295
1953332N06149 1953 79 WP MM NOT_NAMED 1953-11-28 18:00:00 TS 5.23083 145.827 1004 tokyo main 822 822 OOO______OPO__ jtwc_wp WP231953 5.00000 145.600 30 -1 5.70000 146.300 2 1004 0 0 0 5.70000 146.300 1 29 1004 5.00000 145.600 TC 30 4.98497 145.562 1 30 5.00000 145.600 30 1005 240 6 296
1953332N06149 1953 79 WP MM NOT_NAMED 1953-11-28 21:00:00 TS 5.36479 145.558 main 847 847 PPP______PPP__ WP231953 5.15000 145.342 30 -1 5.80001 146.000 2 1005 0 0 5.80001 146.000 1 29 1005 5.15000 145.342 TC 30 5.13874 145.320 1 30 5.15000 145.342 30 1005 210 6 296
1953332N06149 1953 79 WP MM NOT_NAMED 1953-11-29 00:00:00 TS 5.48400 145.304 1006 tokyo main 863 863 OOO______OOO__ jtwc_wp WP231953 5.30000 145.100 30 -1 5.90000 145.700 2 1006 0 0 0 5.90000 145.700 1 29 1006 5.30000 145.100 TC 30 5.30000 145.100 1 30 5.30000 145.100 30 1006 180 5 296
1953332N06149 1953 79 WP MM NOT_NAMED 1953-11-29 03:00:00 TS 5.59457 145.084 main 878 878 PPP______PPP__ WP231953 5.44249 144.885 32 -1 5.94997 145.450 2 1006 0 0 5.94997 145.450 1 29 1006 5.44249 144.885 TC 32 5.46774 144.912 1 31 5.44249 144.885 32 1005 180 5 299
1953332N06149 1953 79 WP MM NOT_NAMED 1953-11-29 06:00:00 TS 5.72175 144.879 1006 tokyo main 894 894 OOO______OPO__ jtwc_wp WP231953 5.60000 144.700 35 0 6.00000 145.200 2 1006 0 0 0 6.00000 145.200 1 29 1006 5.60000 144.700 TC 35 5.64241 144.742 1 32 5.60000 144.700 35 1005 180 5 305
1953332N06149 1953 79 WP MM NOT_NAMED 1953-11-29 09:00:00 TS 5.88257 144.673 main 921 921 PPP______PPP__ WP231953 5.79248 144.550 35 0 6.09249 144.908 2 1006 0 0 6.09249 144.908 1 29 1006 5.79248 144.550 TC 35 5.82087 144.577 1 33 5.79248 144.550 35 1004 150 5 309
1953332N06149 1953 79 WP MM NOT_NAMED 1953-11-29 12:00:00 TS 6.05714 144.457 1006 tokyo main 948 948 OOO______OOO__ jtwc_wp WP231953 6.00000 144.400 35 0 6.20000 144.600 2 1006 0 0 0 6.20000 144.600 1 29 1006 6.00000 144.400 TC 35 6.00000 144.400 2 35 6.00000 144.400 35 1004 120 6 307
1953332N06149 1953 79 WP MM NOT_NAMED 1953-11-29 15:00:00 TS 6.22714 144.220 main 967 967 PPP______PPP__ WP231953 6.20749 144.215 35 0 6.29248 144.300 2 1005 0 0 6.29998 144.300 1 29 1005 6.20749 144.215 TC 35 6.19127 144.181 2 35 6.20749 144.215 35 1003 120 6 304
1953332N06149 1953 79 WP MM NOT_NAMED 1953-11-29 18:00:00 TS 6.38930 143.968 1004 tokyo main 995 995 OOO______OPO__ jtwc_wp WP231953 6.40000 144.000 35 0 6.40000 144.000 2 1004 0 0 0 6.40000 144.000 1 29 1004 6.40000 144.000 TC 35 6.38003 143.950 2 35 6.40000 144.000 35 1003 120 6 301
1953332N06149 1953 79 WP MM NOT_NAMED 1953-11-29 21:00:00 TS 6.54251 143.701 main 1016 1016 PPP______PPP__ WP231953 6.56501 143.750 35 0 6.55749 143.693 2 1003 0 0 6.50749 143.693 1 33 1003 6.56501 143.750 TC 35 6.55377 143.719 2 35 6.56501 143.750 35 1002 150 6 298
1953332N06149 1953 79 WP MM NOT_NAMED 1953-11-30 00:00:00 TS 6.67143 143.443 1002 tokyo main 1048 1048 OOO______OOO__ jtwc_wp WP231953 6.70000 143.500 35 0 6.70000 143.400 2 1002 0 0 0 6.60000 143.400 2 38 1002 6.70000 143.500 TC 35 6.70000 143.500 2 35 6.70000 143.500 35 1001 180 5 295
1953332N06149 1953 79 WP MM NOT_NAMED 1953-11-30 03:00:00 TS 6.76844 143.222 main 1066 1066 PPP______PPP__ WP231953 6.81499 143.285 35 0 6.77249 143.127 2 1001 0 0 6.65747 143.142 2 38 1001 6.81499 143.285 TC 35 6.80773 143.323 2 35 6.81499 143.285 35 1000 210 4 292
1953332N06149 1953 79 WP MM NOT_NAMED 1953-11-30 06:00:00 TS 6.83710 143.029 1000 tokyo main 1070 1070 OOO______OPO__ jtwc_wp WP231953 6.90000 143.100 35 0 6.80000 142.900 9 1000 0 0 0 6.70000 142.900 2 38 1000 6.90000 143.100 TC 35 6.88738 143.157 2 35 6.90000 143.100 35 1000 240 4 289
1953332N06149 1953 79 WP MM NOT_NAMED 1953-11-30 09:00:00 TS 6.88790 142.863 main 1078 1071 PPP______PPP__ WP231953 6.95747 142.957 35 0 6.80748 142.735 9 1000 0 0 6.74996 142.665 2 43 1000 6.95747 142.957 TC 35 6.94835 142.988 2 35 6.95747 142.957 35 1000 240 4 285
1953332N06149 1953 79 WP MM NOT_NAMED 1953-11-30 12:00:00 TS 6.92857 142.686 1000 tokyo main 1071 1066 OOO______OOO__ jtwc_wp WP231953 7.00000 142.800 35 0 6.80000 142.600 9 1000 0 0 0 6.80000 142.400 3 48 1000 7.00000 142.800 TC 35 7.00000 142.800 2 35 7.00000 142.800 35 1000 240 4 282
1953332N06149 1953 79 WP MM NOT_NAMED 1953-11-30 15:00:00 TS 6.97608 142.459 main 1072 1060 PPP______PPP__ WP231953 7.05001 142.565 35 0 6.79250 142.450 9 1000 0 0 6.85000 142.065 3 48 1000 7.05001 142.565 TC 35 7.05705 142.604 2 36 7.05001 142.565 35 1000 270 5 281
1953332N06149 1953 79 WP MM NOT_NAMED 1953-11-30 18:00:00 TS 7.02458 142.208 1000 tokyo main 1060 1055 OOO______OPO__ jtwc_wp WP231953 7.10000 142.300 35 0 6.80000 142.300 9 1000 0 0 0 6.90000 141.700 3 48 1000 7.10000 142.300 TC 35 7.10726 142.382 2 37 7.10000 142.300 35 1001 300 5 282
1953332N06149 1953 79 WP MM NOT_NAMED 1953-11-30 21:00:00 TS 7.07647 141.969 main 1062 1049 PPP______PPP__ WP231953 7.14994 142.072 37 0 6.84244 142.188 9 1000 0 0 6.94999 141.342 3 48 1000 7.14994 142.072 TC 37 7.15385 142.120 2 38 7.14994 142.072 37 1001 270 5 281
1953332N06149 1953 79 WP MM NOT_NAMED 1953-12-01 00:00:00 TS 7.12857 141.686 1000 tokyo main 1049 1044 OOO______OOO__ jtwc_wp WP231953 7.20000 141.800 40 0 6.90000 142.000 9 1000 0 0 0 7.00000 141.000 3 48 1000 7.20000 141.800 TC 40 7.20000 141.800 2 40 7.20000 141.800 40 1002 240 6 279
1953332N06149 1953 79 WP MM NOT_NAMED 1953-12-01 03:00:00 TS 7.17764 141.327 main 1044 1030 PPP______PPP__ WP231953 7.24997 141.437 35 0 6.95002 141.645 9 1000 0 0 7.04997 140.692 3 48 1000 7.24997 141.437 TC 35 7.25416 141.408 2 37 7.24997 141.437 35 1002 210 8 277
1953332N06149 1953 79 WP MM NOT_NAMED 1953-12-01 06:00:00 TS 7.22466 140.911 1000 tokyo main 1030 1024 OOO______OPO__ jtwc_wp WP231953 7.30000 141.000 30 -1 7.00000 141.200 9 1000 0 0 0 7.10000 140.400 3 48 1000 7.30000 141.000 TC 30 7.30762 140.960 2 35 7.30000 141.000 30 1002 180 9 276
1953332N06149 1953 79 WP MM NOT_NAMED 1953-12-01 09:00:00 TS 7.27434 140.461 main 1029 1015 PPP______PPP__ WP231953 7.35752 140.508 30 -1 7.04998 140.757 9 1000 0 0 7.15748 140.100 3 43 1000 7.35752 140.508 TC 30 7.35725 140.482 2 32 7.35752 140.508 30 1002 180 9 276
1953332N06149 1953 79 WP MM NOT_NAMED 1953-12-01 12:00:00 TS 7.31429 140.000 1000 tokyo main 1015 996 OOO______OOO__ jtwc_wp WP231953 7.40000 140.000 30 -1 7.10000 140.300 9 1000 0 0 0 7.20000 139.800 2 38 1000 7.40000 140.000 TC 30 7.40000 140.000 1 30 7.40000 140.000 30 1003 180 9 273
1953332N06149 1953 79 WP MM NOT_NAMED 1953-12-01 15:00:00 TS 7.32838 139.566 main 996 978 PPP______PPP__ WP231953 7.39993 139.542 30 -1 7.14996 139.850 9 1001 0 0 7.19995 139.515 2 38 1001 7.39993 139.542 TC 30 7.42799 139.550 1 30 7.39993 139.542 30 1002 210 9 272
1953332N06149 1953 79 WP MM NOT_NAMED 1953-12-01 18:00:00 TS 7.34177 139.134 1002 tokyo main 974 970 OOO______OPO__ jtwc_wp WP231953 7.40000 139.100 30 -1 7.20000 139.400 2 1002 0 0 0 7.20000 139.200 2 38 1002 7.40000 139.100 TC 30 7.44982 139.100 1 30 7.40000 139.100 30 1002 240 9 274
1953332N06149 1953 79 WP MM NOT_NAMED 1953-12-01 21:00:00 TS 7.38205 138.691 main 970 952 PPP______PPP__ WP231953 7.44245 138.650 30 -1 7.25743 138.958 2 1002 0 0 7.24998 138.823 2 33 1002 7.44245 138.650 TC 30 7.47174 138.650 1 30 7.44245 138.650 30 1001 210 10 275
1953332N06149 1953 79 WP MM NOT_NAMED 1953-12-02 00:00:00 TS 7.43448 138.134 1002 tokyo main 949 942 OOO______OOO__ jtwc_wp WP231953 7.50000 138.200 30 -1 7.30000 138.500 2 1002 0 0 0 7.30000 138.400 1 29 1002 7.50000 138.200 TC 30 7.50000 138.200 1 30 7.50000 138.200 30 1001 180 11 275
1953332N06149 1953 79 WP MM NOT_NAMED 1953-12-02 03:00:00 TS 7.46883 137.603 main 945 933 PPP______PPP__ WP231953 7.54995 137.750 30 -1 7.30749 138.000 2 1002 0 0 7.30748 137.957 1 29 1002 7.54995 137.750 TC 30 7.55483 137.754 1 30 7.54995 137.750 30 1000 150 10 273
1953332N06149 1953 79 WP MM NOT_NAMED 1953-12-02 06:00:00 TS 7.49216 137.096 1002 tokyo main 933 925 OOO______OPO__ jtwc_wp WP231953 7.60000 137.300 30 -1 7.30000 137.500 2 1002 0 0 0 7.30000 137.500 1 29 1002 7.60000 137.300 TC 30 7.61477 137.308 1 30 7.60000 137.300 30 999 120 10 273
1953332N06149 1953 79 WP MM NOT_NAMED 1953-12-02 09:00:00 TS 7.51152 136.624 main 925 921 PPP______PPP__ WP231953 7.65743 136.858 30 -1 7.29991 137.050 2 1002 0 0 7.29993 137.058 1 29 1002 7.65743 136.858 TC 30 7.66732 136.857 1 30 7.65743 136.858 30 999 150 9 272
1953332N06149 1953 79 WP MM NOT_NAMED 1953-12-02 12:00:00 TS 7.52500 136.213 1002 tokyo main 921 919 OOO______OOO__ jtwc_wp WP231953 7.70000 136.400 30 -1 7.30000 136.600 2 1002 0 0 0 7.30000 136.600 1 29 1002 7.70000 136.400 TC 30 7.70000 136.400 1 30 7.70000 136.400 30 1000 180 9 271
1953332N06149 1953 79 WP MM NOT_NAMED 1953-12-02 15:00:00 TS 7.52458 135.753 main 919 918 PPP______PPP__ WP231953 7.71499 135.900 30 -1 7.30747 136.108 2 1002 0 0 7.30747 136.108 1 29 1002 7.71499 135.900 TC 30 7.70370 135.934 1 30 7.71499 135.900 30 1000 150 10 268
1953332N06149 1953 79 WP MM NOT_NAMED 1953-12-02 18:00:00 TS 7.48667 135.249 1002 tokyo main 912 871 OOO______OPO__ jtwc_wp WP231953 7.70000 135.400 30 -1 7.30000 135.600 2 1002 0 0 0 7.30000 135.600 1 29 1002 7.70000 135.400 TC 30 7.68296 135.460 1 30 7.70000 135.400 30 1001 120 10 264
1953332N06149 1953 79 WP MM NOT_NAMED 1953-12-02 21:00:00 TS 7.42144 134.753 main 871 821 PPP______PPP__ WP231953 7.65756 134.937 30 -1 7.24999 135.085 2 1002 0 0 7.26010 135.097 1 29 1002 7.65756 134.937 TC 30 7.64574 134.981 1 30 7.65756 134.937 30 1002 150 10 261
1953332N06149 1953 79 WP MM NOT_NAMED 1953-12-03 00:00:00 TS 7.34118 134.271 1003 tokyo main 821 780 OOO______OOO__ jtwc_wp WP231953 7.60000 134.500 30 -1 7.20000 134.600 2 1003 0 0 0 7.20000 134.600 1 29 1003 7.60000 134.500 TC 30 7.60000 134.500 1 30 7.60000 134.500 30 1003 180 9 260
1953332N06149 1953 79 WP MM NOT_NAMED 1953-12-03 03:00:00 TS 7.25550 133.829 main 780 756 _P____________ WP231953 -1 7.19246 134.170 2 1001 0 0 1 TC 1 7 263
1953332N06149 1953 79 WP MM NOT_NAMED 1953-12-03 06:00:00 TS 7.25487 133.532 1000 tokyo main 756 739 _O____________ -1 7.20000 133.800 2 1000 0 0 0 1 6 270
1953332N06149 1953 79 WP MM NOT_NAMED 1953-12-03 09:00:00 TS 7.25846 133.236 main 728 706 _P____________ -1 7.20000 133.410 2 1000 0 0 1 5 271
1953332N06149 1953 79 WP MM NOT_NAMED 1953-12-03 12:00:00 TS 7.26667 133.000 1000 tokyo main 706 695 _O____________ -1 7.20000 133.200 2 1000 0 0 0 3 273
1953332N06149 1953 79 WP MM NOT_NAMED 1953-12-03 15:00:00 TS 7.27352 132.926 main 695 684 _P____________ -1 7.19987 133.475 2 1000 0 0 2 274
1953332N06149 1953 79 WP MM NOT_NAMED 1953-12-03 18:00:00 TS 7.28071 132.801 1000 tokyo main 684 640 _O____________ -1 7.20000 133.600 2 1000 0 0 0 5 271
1953332N06149 1953 79 WP MM NOT_NAMED 1953-12-03 21:00:00 TS 7.28682 132.398 main 640 585 _P____________ -1 7.19298 132.912 2 1000 0 0 9 271
1953332N06149 1953 79 WP MM NOT_NAMED 1953-12-04 00:00:00 TS 7.30000 131.900 1000 tokyo main 585 540 _O____________ -1 7.20000 132.000 2 1000 0 0 0 9 272
1953332N06149 1953 79 WP MM NOT_NAMED 1953-12-04 03:00:00 TS 7.32186 131.469 main 540 496 _P____________ -1 7.24230 131.405 2 1000 0 0 9 274
1953332N06149 1953 79 WP MM NOT_NAMED 1953-12-04 06:00:00 TS 7.35674 131.043 1000 tokyo main 485 441 _O____________ -1 7.30000 130.900 2 1000 0 0 0 9 275
1953332N06149 1953 79 WP MM NOT_NAMED 1953-12-04 09:00:00 TS 7.40064 130.605 main 441 397 _P____________ -1 7.34242 130.392 2 1000 0 0 9 277
1953332N06149 1953 79 WP MM NOT_NAMED 1953-12-04 12:00:00 TS 7.46667 130.167 1000 tokyo main 397 341 _O____________ -1 7.40000 129.900 2 1000 0 0 0 9 281
1953332N06149 1953 79 WP MM NOT_NAMED 1953-12-04 15:00:00 TS 7.56448 129.715 main 341 297 _P____________ -1 7.50755 129.363 2 1000 0 0 9 284
1953332N06149 1953 79 WP MM NOT_NAMED 1953-12-04 18:00:00 TS 7.67418 129.301 1000 tokyo main 297 264 _O____________ -1 7.60000 128.900 2 1000 0 0 0 8 286
1953332N06149 1953 79 WP MM NOT_NAMED 1953-12-04 21:00:00 TS 7.77429 128.961 main 264 231 _P____________ -1 7.62245 128.600 2 1002 0 0 7 287
1953332N06149 1953 79 WP MM NOT_NAMED 1953-12-05 00:00:00 TS 7.86667 128.667 1004 tokyo main 232 _O____________ -1 7.60000 128.400 2 1004 0 0 0 6 288

Digital Typhoon Data and Search

About IBTrACS Database

This database is a web-friendly format of International Best Track Archive for Climate Stewardship (IBTrACS), a global best track data archive curated by NOAA dating back to 1842.

Updated: 2021-12-06